createdAt,value
2018-03-21T00:01:21.274Z,-3.80
2018-03-21T00:03:49.402Z,-3.80
2018-03-21T00:06:17.559Z,-4.00
2018-03-21T00:08:45.690Z,-3.90
2018-03-21T00:11:13.846Z,-4.00
2018-03-21T00:13:41.976Z,-4.00
2018-03-21T00:16:10.466Z,-4.10
2018-03-21T00:18:38.606Z,-3.90
2018-03-21T00:21:06.759Z,-4.00
2018-03-21T00:23:34.885Z,-4.00
2018-03-21T00:26:03.046Z,-4.20
2018-03-21T00:28:31.187Z,-4.20
2018-03-21T00:30:59.338Z,-4.10
2018-03-21T00:33:27.469Z,-4.20
2018-03-21T00:35:55.619Z,-4.20
2018-03-21T00:38:24.517Z,-4.20
2018-03-21T00:40:52.678Z,-4.10
2018-03-21T00:43:20.830Z,-4.00
2018-03-21T00:45:48.989Z,-4.10
2018-03-21T00:48:17.129Z,-4.20
2018-03-21T00:50:45.280Z,-4.30
2018-03-21T00:53:14.176Z,-4.20
2018-03-21T00:55:42.334Z,-4.30
2018-03-21T00:58:11.231Z,-4.10
2018-03-21T01:00:39.381Z,-4.20
2018-03-21T01:03:07.514Z,-4.10
2018-03-21T01:05:35.678Z,-4.20
2018-03-21T01:08:03.826Z,-4.20
2018-03-21T01:10:31.977Z,-4.30
2018-03-21T01:13:00.105Z,-4.20
2018-03-21T01:15:28.253Z,-4.20
2018-03-21T01:17:56.381Z,-4.40
2018-03-21T01:20:24.534Z,-4.50
2018-03-21T01:22:52.668Z,-4.40
2018-03-21T01:25:21.594Z,-4.40
2018-03-21T01:27:49.722Z,-4.40
2018-03-21T01:30:18.641Z,-4.40
2018-03-21T01:32:46.768Z,-4.50
2018-03-21T01:35:14.930Z,-4.30
2018-03-21T01:37:43.061Z,-4.60
2018-03-21T01:40:11.214Z,-4.50
2018-03-21T01:42:39.347Z,-4.40
2018-03-21T01:45:07.497Z,-4.50
2018-03-21T01:47:35.621Z,-4.60
2018-03-21T01:50:03.780Z,-4.50
2018-03-21T01:52:31.909Z,-4.60
2018-03-21T01:55:00.071Z,-4.60
2018-03-21T01:57:28.206Z,-4.40
2018-03-21T01:59:56.357Z,-4.60
2018-03-21T02:02:24.490Z,-4.60
2018-03-21T02:04:52.625Z,-4.60
2018-03-21T02:07:20.773Z,-4.60
2018-03-21T02:09:48.902Z,-4.60
2018-03-21T02:12:17.053Z,-4.60
2018-03-21T02:14:45.180Z,-4.60
2018-03-21T02:17:13.341Z,-4.50
2018-03-21T02:19:41.469Z,-4.60
2018-03-21T02:22:09.627Z,-4.70
2018-03-21T02:24:37.760Z,-4.70
2018-03-21T02:27:05.914Z,-4.70
2018-03-21T02:29:34.050Z,-4.50
2018-03-21T02:32:02.205Z,-4.80
2018-03-21T02:34:30.333Z,-4.70
2018-03-21T02:36:58.489Z,-4.80
2018-03-21T02:39:27.389Z,-4.60
2018-03-21T02:41:55.547Z,-4.70
2018-03-21T02:44:23.675Z,-4.70
2018-03-21T02:46:51.836Z,-4.50
2018-03-21T02:49:19.962Z,-4.70
2018-03-21T02:51:48.119Z,-4.60
2018-03-21T02:54:16.249Z,-4.50
2018-03-21T02:56:44.397Z,-4.80
2018-03-21T02:59:12.521Z,-4.90
2018-03-21T03:01:40.689Z,-4.70
2018-03-21T03:04:08.818Z,-4.80
2018-03-21T03:06:37.743Z,-4.70
2018-03-21T03:09:05.874Z,-4.70
2018-03-21T03:11:34.030Z,-4.60
2018-03-21T03:14:02.154Z,-4.80
2018-03-21T03:16:30.310Z,-4.90
2018-03-21T03:18:58.461Z,-4.80
2018-03-21T03:21:26.622Z,-4.80
2018-03-21T03:23:54.767Z,-4.70
2018-03-21T03:26:22.925Z,-4.90
2018-03-21T03:28:51.082Z,-4.90
2018-03-21T03:31:19.239Z,-5.00
2018-03-21T03:33:47.376Z,-4.90
2018-03-21T03:36:15.529Z,-5.10
2018-03-21T03:38:43.659Z,-5.10
2018-03-21T03:41:12.577Z,-5.00
2018-03-21T03:43:40.709Z,-4.90
2018-03-21T03:46:08.881Z,-4.80
2018-03-21T03:48:37.016Z,-5.10
2018-03-21T03:51:05.174Z,-5.20
2018-03-21T03:53:33.297Z,-5.10
2018-03-21T03:56:01.462Z,-5.00
2018-03-21T03:58:29.592Z,-5.00
2018-03-21T04:00:57.749Z,-5.10
2018-03-21T04:03:25.873Z,-5.10
2018-03-21T04:05:54.030Z,-5.10
2018-03-21T04:08:22.162Z,-5.20
2018-03-21T04:10:50.316Z,-5.00
2018-03-21T04:13:18.446Z,-5.20
2018-03-21T04:15:46.603Z,-5.10
2018-03-21T04:18:14.734Z,-4.90
2018-03-21T04:20:42.893Z,-5.10
2018-03-21T04:23:11.063Z,-5.10
2018-03-21T04:25:39.197Z,-5.00
2018-03-21T04:28:07.321Z,-5.10
2018-03-21T04:30:35.453Z,-5.20
2018-03-21T04:33:03.600Z,-4.90
2018-03-21T04:35:31.741Z,-5.20
2018-03-21T04:37:59.890Z,-4.90
2018-03-21T04:40:28.023Z,-4.90
2018-03-21T04:42:56.173Z,-5.00
2018-03-21T04:45:24.305Z,-4.70
2018-03-21T04:47:52.461Z,-4.90
2018-03-21T04:50:20.599Z,-4.70
2018-03-21T04:52:48.767Z,-4.80
2018-03-21T04:55:16.905Z,-4.80
2018-03-21T04:57:45.061Z,-4.80
2018-03-21T05:00:13.189Z,-4.50
2018-03-21T05:02:41.345Z,-4.40
2018-03-21T05:05:09.481Z,-4.50
2018-03-21T05:07:37.646Z,-4.60
2018-03-21T05:10:05.779Z,-4.40
2018-03-21T05:12:33.938Z,-4.60
2018-03-21T05:15:02.075Z,-4.30
2018-03-21T05:17:30.229Z,-4.40
2018-03-21T05:19:58.368Z,-4.30
2018-03-21T05:22:26.526Z,-4.30
2018-03-21T05:24:55.506Z,-4.30
2018-03-21T05:27:23.674Z,-4.30
2018-03-21T05:29:51.798Z,-4.00
2018-03-21T05:32:20.726Z,-4.10
2018-03-21T05:34:48.861Z,-4.00
2018-03-21T05:37:17.786Z,-3.80
2018-03-21T05:39:45.942Z,-3.90
2018-03-21T05:42:14.081Z,-3.60
2018-03-21T05:44:42.237Z,-3.50
2018-03-21T05:47:10.381Z,-3.50
2018-03-21T05:49:38.536Z,-3.60
2018-03-21T05:52:06.679Z,-3.40
2018-03-21T05:54:34.833Z,-3.30
2018-03-21T05:57:02.968Z,-3.20
2018-03-21T05:59:31.130Z,-3.20
2018-03-21T06:01:59.261Z,-3.10
2018-03-21T06:04:27.428Z,-2.80
2018-03-21T06:06:55.561Z,-2.80
2018-03-21T06:09:23.742Z,-2.70
2018-03-21T06:11:51.881Z,-2.50
2018-03-21T06:14:20.042Z,-2.50
2018-03-21T06:16:48.185Z,-2.50
2018-03-21T06:19:16.343Z,-2.50
2018-03-21T06:21:44.469Z,-2.40
2018-03-21T06:24:12.643Z,-2.40
2018-03-21T06:26:40.774Z,-2.00
2018-03-21T06:29:08.910Z,-2.20
2018-03-21T06:31:37.061Z,-2.10
2018-03-21T06:34:05.355Z,-2.00
2018-03-21T06:36:34.269Z,-1.90
2018-03-21T06:39:02.413Z,-1.70
2018-03-21T06:41:31.338Z,-1.70
2018-03-21T06:43:59.524Z,-1.70
2018-03-21T06:46:27.686Z,-1.60
2018-03-21T06:48:55.818Z,-1.50
2018-03-21T06:51:23.979Z,-1.40
2018-03-21T06:53:52.115Z,-1.20
2018-03-21T06:56:20.269Z,-1.20
2018-03-21T06:58:48.398Z,-1.10
2018-03-21T07:01:16.549Z,-0.90
2018-03-21T07:03:44.690Z,-0.90
2018-03-21T07:06:12.870Z,-0.90
2018-03-21T07:08:40.994Z,-0.70
2018-03-21T07:11:09.150Z,-0.60
2018-03-21T07:13:49.069Z,-0.60
2018-03-21T07:16:28.820Z,-0.50
2018-03-21T07:18:56.958Z,-0.40
2018-03-21T07:21:25.117Z,-0.20
2018-03-21T07:23:53.245Z,-0.30
2018-03-21T07:26:21.407Z,-0.10
2018-03-21T07:28:49.558Z,0.00
2018-03-21T07:31:17.682Z,0.10
2018-03-21T07:33:45.834Z,0.10
2018-03-21T07:36:13.957Z,0.20
2018-03-21T07:38:42.110Z,0.30
2018-03-21T07:41:10.229Z,0.40
2018-03-21T07:43:38.386Z,0.50
2018-03-21T07:46:07.283Z,0.70
2018-03-21T07:48:35.429Z,0.70
2018-03-21T07:51:03.554Z,0.80
2018-03-21T07:53:31.778Z,0.90
2018-03-21T07:55:59.913Z,1.10
2018-03-21T07:58:28.065Z,1.20
2018-03-21T08:00:56.181Z,1.30
2018-03-21T08:03:24.361Z,1.50
2018-03-21T08:05:52.484Z,1.60
2018-03-21T08:08:20.690Z,1.80
2018-03-21T08:10:48.869Z,1.80
2018-03-21T08:13:17.021Z,1.90
2018-03-21T08:15:45.141Z,2.00
2018-03-21T08:18:13.301Z,2.10
2018-03-21T08:20:41.427Z,2.20
2018-03-21T08:23:09.582Z,2.20
2018-03-21T08:25:37.714Z,2.30
2018-03-21T08:28:05.866Z,2.40
2018-03-21T08:30:34.022Z,2.50
2018-03-21T08:33:02.202Z,2.60
2018-03-21T08:35:30.329Z,2.70
2018-03-21T08:37:58.476Z,2.80
2018-03-21T08:40:26.602Z,3.00
2018-03-21T08:42:54.745Z,3.20
2018-03-21T08:45:22.869Z,3.50
2018-03-21T08:47:50.998Z,3.80
2018-03-21T08:50:19.152Z,4.20
2018-03-21T08:52:47.278Z,4.50
2018-03-21T08:55:15.427Z,4.80
2018-03-21T08:57:43.549Z,5.10
2018-03-21T09:00:11.697Z,5.20
2018-03-21T09:02:39.830Z,5.30
2018-03-21T09:05:07.978Z,5.30
2018-03-21T09:07:36.113Z,5.20
2018-03-21T09:10:04.272Z,5.20
2018-03-21T09:12:33.162Z,5.20
2018-03-21T09:15:01.318Z,5.20
2018-03-21T09:17:29.446Z,5.10
2018-03-21T09:19:57.597Z,5.10
2018-03-21T09:22:25.726Z,5.10
2018-03-21T09:24:53.884Z,5.10
2018-03-21T09:27:22.008Z,5.30
2018-03-21T09:29:50.166Z,5.30
2018-03-21T09:32:18.297Z,5.30
2018-03-21T09:34:46.442Z,5.30
2018-03-21T09:37:14.566Z,5.40
2018-03-21T09:39:42.710Z,5.50
2018-03-21T09:42:10.845Z,5.50
2018-03-21T09:44:39.004Z,5.50
2018-03-21T09:47:07.134Z,5.60
2018-03-21T09:49:35.282Z,5.70
2018-03-21T09:52:03.410Z,5.70
2018-03-21T09:54:32.041Z,5.80
2018-03-21T09:57:00.168Z,5.90
2018-03-21T09:59:28.294Z,5.90
2018-03-21T10:01:56.446Z,6.00
2018-03-21T10:04:24.581Z,6.00
2018-03-21T10:06:52.725Z,6.00
2018-03-21T10:09:20.865Z,6.00
2018-03-21T10:11:49.016Z,6.00
2018-03-21T10:14:17.175Z,6.00
2018-03-21T10:16:45.314Z,6.10
2018-03-21T10:19:13.437Z,6.00
2018-03-21T10:21:41.586Z,6.00
2018-03-21T10:24:09.724Z,6.10
2018-03-21T10:26:37.878Z,6.10
2018-03-21T10:29:06.770Z,6.20
2018-03-21T10:31:34.957Z,6.20
2018-03-21T10:34:03.160Z,6.20
2018-03-21T10:36:31.393Z,6.30
2018-03-21T10:38:59.551Z,6.50
2018-03-21T10:41:27.758Z,6.50
2018-03-21T10:43:55.928Z,6.60
2018-03-21T10:46:24.160Z,6.50
2018-03-21T10:48:52.401Z,6.60
2018-03-21T10:51:20.609Z,6.60
2018-03-21T10:53:48.751Z,6.60
2018-03-21T10:56:16.915Z,6.70
2018-03-21T10:58:45.054Z,6.70
2018-03-21T11:01:18.774Z,6.60
2018-03-21T11:04:01.477Z,6.40
2018-03-21T11:06:29.650Z,6.30
2018-03-21T11:08:57.773Z,6.40
2018-03-21T11:11:25.918Z,6.50
2018-03-21T11:13:54.047Z,6.60
2018-03-21T11:16:22.214Z,6.70
2018-03-21T11:18:50.342Z,6.80
2018-03-21T11:21:18.464Z,6.90
2018-03-21T11:23:46.620Z,7.00
2018-03-21T11:26:14.741Z,7.00
2018-03-21T11:28:42.882Z,7.10
2018-03-21T11:31:11.001Z,7.10
2018-03-21T11:33:39.144Z,7.10
2018-03-21T11:36:08.040Z,7.10
2018-03-21T11:38:36.197Z,7.10
2018-03-21T11:41:04.328Z,7.20
2018-03-21T11:43:32.482Z,7.10
2018-03-21T11:46:00.605Z,7.10
2018-03-21T11:48:29.477Z,7.10
2018-03-21T11:50:57.609Z,7.10
2018-03-21T11:53:25.773Z,7.20
2018-03-21T11:55:53.913Z,7.30
2018-03-21T11:58:22.062Z,7.50
2018-03-21T12:00:50.185Z,7.70
2018-03-21T12:03:18.339Z,7.80
2018-03-21T12:05:46.463Z,7.80
2018-03-21T12:08:14.618Z,7.90
2018-03-21T12:10:42.741Z,7.90
2018-03-21T12:13:10.885Z,7.80
2018-03-21T12:15:39.009Z,7.80
2018-03-21T12:18:07.157Z,7.70
2018-03-21T12:20:35.287Z,7.60
2018-03-21T12:23:03.454Z,7.50
2018-03-21T12:25:32.346Z,7.50
2018-03-21T12:28:00.501Z,7.50
2018-03-21T12:30:28.630Z,7.50
2018-03-21T12:32:56.773Z,7.50
2018-03-21T12:35:24.893Z,7.50
2018-03-21T12:37:53.018Z,7.40
2018-03-21T12:40:21.171Z,7.40
2018-03-21T12:42:49.285Z,7.40
2018-03-21T12:45:17.454Z,7.30
2018-03-21T12:47:45.588Z,7.40
2018-03-21T12:50:14.515Z,7.50
2018-03-21T12:52:42.637Z,7.40
2018-03-21T12:55:10.794Z,7.50
2018-03-21T12:57:38.917Z,7.40
2018-03-21T13:00:07.073Z,7.30
2018-03-21T13:02:35.188Z,7.20
2018-03-21T13:05:03.347Z,7.00
2018-03-21T13:07:31.475Z,6.90
2018-03-21T13:09:59.623Z,6.70
2018-03-21T13:12:27.741Z,6.60
2018-03-21T13:14:56.879Z,6.50
2018-03-21T13:17:25.008Z,6.40
2018-03-21T13:19:53.153Z,6.30
2018-03-21T13:22:21.282Z,6.20
2018-03-21T13:24:49.430Z,6.20
2018-03-21T13:27:18.326Z,6.20
2018-03-21T13:29:46.481Z,6.20
2018-03-21T13:32:14.640Z,6.20
2018-03-21T13:34:42.794Z,6.20
2018-03-21T13:37:10.939Z,6.20
2018-03-21T13:39:39.119Z,6.30
2018-03-21T13:42:07.246Z,6.30
2018-03-21T13:44:35.420Z,6.40
2018-03-21T13:47:03.541Z,6.40
2018-03-21T13:49:31.770Z,6.40
2018-03-21T13:51:59.939Z,6.40
2018-03-21T13:54:28.098Z,6.40
2018-03-21T13:56:56.286Z,6.40
2018-03-21T13:59:24.433Z,6.50
2018-03-21T14:01:52.602Z,6.40
2018-03-21T14:04:20.741Z,6.30
2018-03-21T14:06:48.885Z,6.30
2018-03-21T14:09:17.030Z,6.20
2018-03-21T14:11:45.944Z,6.10
2018-03-21T14:14:14.086Z,6.10
2018-03-21T14:16:42.240Z,6.10
2018-03-21T14:19:10.382Z,6.10
2018-03-21T14:21:39.290Z,6.00
2018-03-21T14:24:07.505Z,6.00
2018-03-21T14:26:35.694Z,5.90
2018-03-21T14:29:03.821Z,5.90
2018-03-21T14:31:31.968Z,5.80
2018-03-21T14:34:00.869Z,5.70
2018-03-21T14:36:29.017Z,5.70
2018-03-21T14:38:57.145Z,5.70
2018-03-21T14:41:25.303Z,5.70
2018-03-21T14:43:53.428Z,5.70
2018-03-21T14:46:21.581Z,5.70
2018-03-21T14:48:49.728Z,5.70
2018-03-21T14:51:17.894Z,5.70
2018-03-21T14:53:46.029Z,5.70
2018-03-21T14:56:14.149Z,5.70
2018-03-21T14:58:42.302Z,5.70
2018-03-21T15:01:11.207Z,5.70
2018-03-21T15:03:39.369Z,5.70
2018-03-21T15:06:08.282Z,5.70
2018-03-21T15:08:36.496Z,5.70
2018-03-21T15:11:04.812Z,5.70
2018-03-21T15:13:33.725Z,5.60
2018-03-21T15:16:01.960Z,5.60
2018-03-21T15:18:30.125Z,5.60
2018-03-21T15:20:58.262Z,5.50
2018-03-21T15:23:26.429Z,5.50
2018-03-21T15:25:54.553Z,5.40
2018-03-21T15:28:22.763Z,5.40
2018-03-21T15:30:50.858Z,5.30
2018-03-21T15:33:19.034Z,5.30
2018-03-21T15:35:47.165Z,5.20
2018-03-21T15:38:15.315Z,5.20
2018-03-21T15:40:43.485Z,5.20
2018-03-21T15:43:11.629Z,5.20
2018-03-21T15:45:39.758Z,5.20
2018-03-21T15:48:07.934Z,5.20
2018-03-21T15:50:36.069Z,5.10
2018-03-21T15:53:04.222Z,5.10
2018-03-21T15:55:32.431Z,5.10
2018-03-21T15:58:00.527Z,5.10
2018-03-21T16:00:28.758Z,5.10
2018-03-21T16:02:56.901Z,5.20
2018-03-21T16:05:25.072Z,5.10
2018-03-21T16:07:53.222Z,5.10
2018-03-21T16:10:22.150Z,5.10
2018-03-21T16:12:50.308Z,5.10
2018-03-21T16:15:18.568Z,5.10
2018-03-21T16:17:46.802Z,5.10
2018-03-21T16:20:14.997Z,5.10
2018-03-21T16:22:43.144Z,5.00
2018-03-21T16:25:11.293Z,5.00
2018-03-21T16:27:39.654Z,5.00
2018-03-21T16:30:07.900Z,4.90
2018-03-21T16:32:36.029Z,4.90
2018-03-21T16:35:04.209Z,4.90
2018-03-21T16:37:32.339Z,4.90
2018-03-21T16:40:00.501Z,4.90
2018-03-21T16:42:28.638Z,4.80
2018-03-21T16:44:56.806Z,4.80
2018-03-21T16:47:24.928Z,4.80
2018-03-21T16:49:53.111Z,4.80
2018-03-21T16:52:21.261Z,4.80
2018-03-21T16:54:50.291Z,4.70
2018-03-21T16:57:18.436Z,4.70
2018-03-21T16:59:46.678Z,4.70
2018-03-21T17:02:14.886Z,4.70
2018-03-21T17:04:43.063Z,4.60
2018-03-21T17:07:11.275Z,4.60
2018-03-21T17:09:39.472Z,4.60
2018-03-21T17:12:07.721Z,4.60
2018-03-21T17:14:35.864Z,4.50
2018-03-21T17:17:04.030Z,4.50
2018-03-21T17:19:32.191Z,4.50
2018-03-21T17:22:00.341Z,4.50
2018-03-21T17:24:28.477Z,4.50
2018-03-21T17:26:56.633Z,4.40
2018-03-21T17:29:24.791Z,4.40
2018-03-21T17:31:53.710Z,4.40
2018-03-21T17:34:21.879Z,4.40
2018-03-21T17:36:50.116Z,4.40
2018-03-21T17:39:18.252Z,4.30
2018-03-21T17:41:46.405Z,4.30
2018-03-21T17:44:14.599Z,4.30
2018-03-21T17:46:42.953Z,4.30
2018-03-21T17:49:11.070Z,4.30
2018-03-21T17:51:39.604Z,4.30
2018-03-21T17:54:08.347Z,4.30
2018-03-21T17:56:36.666Z,4.30
2018-03-21T17:59:05.020Z,4.30
2018-03-21T18:01:34.275Z,4.30
2018-03-21T18:04:02.421Z,4.20
2018-03-21T18:06:30.578Z,4.30
2018-03-21T18:08:58.726Z,4.30
2018-03-21T18:11:26.966Z,4.30
2018-03-21T18:13:55.172Z,4.20
2018-03-21T18:16:23.450Z,4.20
2018-03-21T18:18:51.614Z,4.20
2018-03-21T18:21:19.794Z,4.20
2018-03-21T18:23:48.304Z,4.10
2018-03-21T18:26:16.910Z,4.10
2018-03-21T18:28:45.303Z,4.10
2018-03-21T18:31:13.856Z,4.10
2018-03-21T18:33:42.239Z,4.00
2018-03-21T18:36:10.434Z,4.00
2018-03-21T18:38:38.867Z,4.00
2018-03-21T18:41:07.607Z,4.00
2018-03-21T18:43:35.897Z,4.00
2018-03-21T18:46:04.171Z,4.00
2018-03-21T18:48:32.485Z,4.00
2018-03-21T18:51:01.576Z,4.00
2018-03-21T18:53:30.280Z,4.00
2018-03-21T18:55:58.527Z,4.00
2018-03-21T18:58:26.746Z,4.00
2018-03-21T19:00:55.781Z,4.00
2018-03-21T19:03:24.372Z,4.00
2018-03-21T19:05:52.976Z,4.00
2018-03-21T19:08:21.226Z,4.00
2018-03-21T19:10:49.608Z,4.00
2018-03-21T19:13:20.149Z,4.00
2018-03-21T19:15:46.644Z,4.00
2018-03-21T19:18:14.930Z,4.00
2018-03-21T19:20:43.092Z,4.00
2018-03-21T19:23:11.255Z,3.90
2018-03-21T19:25:39.399Z,3.90
2018-03-21T19:28:07.596Z,3.90
2018-03-21T19:30:36.564Z,3.90
2018-03-21T19:33:04.751Z,3.80
2018-03-21T19:35:33.673Z,3.80
2018-03-21T19:38:01.949Z,3.80
2018-03-21T19:40:30.385Z,3.80
2018-03-21T19:45:39.402Z,3.70
2018-03-21T19:48:07.771Z,3.70
2018-03-21T19:50:35.908Z,3.70
2018-03-21T19:53:04.985Z,3.70
2018-03-21T19:55:33.277Z,3.70
2018-03-21T19:58:01.471Z,3.70
2018-03-21T20:00:30.286Z,3.70
2018-03-21T20:02:58.433Z,3.70
2018-03-21T20:05:26.610Z,3.70
2018-03-21T20:07:54.775Z,3.70
2018-03-21T20:10:22.965Z,3.70
2018-03-21T20:12:51.325Z,3.70
2018-03-21T20:15:19.644Z,3.70
2018-03-21T20:17:47.872Z,3.60
2018-03-21T20:20:16.150Z,3.60
2018-03-21T20:22:44.292Z,3.60
2018-03-21T20:25:12.504Z,3.60
2018-03-21T20:27:40.660Z,3.60
2018-03-21T20:30:09.618Z,3.60
2018-03-21T20:32:37.750Z,3.60
2018-03-21T20:35:05.889Z,3.50
2018-03-21T20:37:34.082Z,3.50
2018-03-21T20:40:02.225Z,3.50
2018-03-21T20:42:30.397Z,3.50
2018-03-21T20:44:59.252Z,3.50
2018-03-21T20:47:27.414Z,3.50
2018-03-21T20:49:55.551Z,3.50
2018-03-21T20:52:23.730Z,3.50
2018-03-21T20:54:51.892Z,3.50
2018-03-21T20:57:20.071Z,3.40
2018-03-21T20:59:48.218Z,3.50
2018-03-21T21:02:16.376Z,3.40
2018-03-21T21:04:44.507Z,3.40
2018-03-21T21:07:14.297Z,3.40
2018-03-21T21:09:42.425Z,3.50
2018-03-21T21:12:10.643Z,3.40
2018-03-21T21:14:38.784Z,3.40
2018-03-21T21:17:06.982Z,3.40
2018-03-21T21:19:35.190Z,3.40
2018-03-21T21:22:03.365Z,3.40
2018-03-21T21:24:31.502Z,3.40
2018-03-21T21:26:59.784Z,3.40
2018-03-21T21:29:27.924Z,3.40
2018-03-21T21:31:56.086Z,3.40
2018-03-21T21:34:24.219Z,3.40
2018-03-21T21:36:52.350Z,3.30
2018-03-21T21:39:20.509Z,3.30
2018-03-21T21:41:48.650Z,3.30
2018-03-21T21:44:17.589Z,3.30
2018-03-21T21:46:45.751Z,3.30
2018-03-21T21:49:13.918Z,3.30
2018-03-21T21:51:42.117Z,3.30
2018-03-21T21:54:10.286Z,3.30
2018-03-21T21:56:38.476Z,3.30
2018-03-21T21:59:06.705Z,3.30
2018-03-21T22:01:35.579Z,3.30
2018-03-21T22:04:03.759Z,3.30
2018-03-21T22:06:31.963Z,3.30
2018-03-21T22:09:00.165Z,3.30
2018-03-21T22:11:28.405Z,3.30
2018-03-21T22:13:56.569Z,3.30
2018-03-21T22:16:24.771Z,3.30
2018-03-21T22:18:52.931Z,3.30
2018-03-21T22:21:21.071Z,3.30
2018-03-21T22:23:49.235Z,3.30
2018-03-21T22:26:18.166Z,3.30
2018-03-21T22:28:46.346Z,3.30
2018-03-21T22:31:14.489Z,3.30
2018-03-21T22:33:42.650Z,3.30
2018-03-21T22:36:10.781Z,3.30
2018-03-21T22:38:38.945Z,3.30
2018-03-21T22:41:07.102Z,3.30
2018-03-21T22:43:35.259Z,3.30
2018-03-21T22:46:03.416Z,3.20
2018-03-21T22:48:32.370Z,3.20
2018-03-21T22:51:00.510Z,3.20
2018-03-21T22:53:28.672Z,3.20
2018-03-21T22:55:56.796Z,3.20
2018-03-21T22:58:24.976Z,3.20
2018-03-21T23:00:53.103Z,3.10
2018-03-21T23:03:21.269Z,3.20
2018-03-21T23:05:49.394Z,3.10
2018-03-21T23:08:17.574Z,3.10
2018-03-21T23:10:45.704Z,3.10
2018-03-21T23:13:13.870Z,3.10
2018-03-21T23:15:42.007Z,3.10
2018-03-21T23:18:10.167Z,3.10
2018-03-21T23:20:38.308Z,3.10
2018-03-21T23:23:06.477Z,3.10
2018-03-21T23:25:34.610Z,3.10
2018-03-21T23:28:02.778Z,3.10
2018-03-21T23:30:30.910Z,3.20
2018-03-21T23:32:59.068Z,3.20
2018-03-21T23:35:27.198Z,3.10
2018-03-21T23:37:55.379Z,3.10
2018-03-21T23:40:24.279Z,3.20
2018-03-21T23:42:52.442Z,3.10
2018-03-21T23:45:21.347Z,3.10
2018-03-21T23:47:49.516Z,3.10
2018-03-21T23:50:17.662Z,3.20
2018-03-21T23:52:45.843Z,3.20
2018-03-21T23:55:13.981Z,3.20
2018-03-21T23:57:42.143Z,3.20
